Tai Xin — 5VEX3 — position and weather

sailwx.info

Track history (hours):
 
Tides and Currents Weather Stations Pressure Air Temp Water Temp Dewpoint Dewpoint Depression Visibility Wind Speed Wind Dir Waves Ship Positions

Tai Xin

Last reported at 2018-Jul-06 13:07 UTC. Time now 2018-Jul-18 08:49 UTC.
Position N 34°58' E 139°27'.
Warning: this ship's position is 11 days out of date.

Length 75 m; draft 5.2 m.

Type: Cargo ship. MMSI: 671897000.

Date/timePositionNaut miles runAvg speedWind from/ knotsBaromVisibWave heightAir tempDewpointWater temp
2018-Jul-06 13:07N 34°58' E 139°27'1 5.6
2018-Jul-06 12:58N 34°58' E 139°28'3 6.0
2018-Jul-06 12:29N 34°60' E 139°31'3 6.4
2018-Jul-06 11:59N 35°02' E 139°34'4 7.6
2018-Jul-06 11:30N 35°04' E 139°37'4 8.0
2018-Jul-06 11:01N 35°07' E 139°41'4 8.2
2018-Jul-06 10:31N 35°10' E 139°45'4 7.9
2018-Jul-06 09:58N 35°14' E 139°46'4 7.8
2018-Jul-06 09:31N 35°17' E 139°45'4 8.3
2018-Jul-06 09:01N 35°21' E 139°42'4 8.4
2018-Jul-06 08:30N 35°25' E 139°44'5 9.2
2018-Jul-06 08:01N 35°28' E 139°48'5 9.1
2018-Jul-06 07:30N 35°31' E 139°53'7 0.4
2018-Jul-05 10:31N 35°37' E 139°58'0 0.0
2018-Jul-05 09:34N 35°37' E 139°58'0 0.0
2018-Jul-05 09:22N 35°37' E 139°58'0 0.0
2018-Jul-05 08:46N 35°37' E 139°58'0 0.0
2018-Jul-05 08:22N 35°37' E 139°58'  
2018-Jul-03 02:15N 35°34' E 139°57'310.1
2018-Jul-03 02:00N 35°32' E 139°55'5 9.6
2018-Jul-03 01:30N 35°28' E 139°51'5 9.8
2018-Jul-03 01:00N 35°25' E 139°47'5 9.3
2018-Jul-03 00:30N 35°20' E 139°45'4 8.0
2018-Jul-03 00:00N 35°16' E 139°46'4 8.9
2018-Jul-02 23:30N 35°12' E 139°47'5 9.4
2018-Jul-02 23:00N 35°07' E 139°46'5 9.7
2018-Jul-02 22:30N 35°03' E 139°45'5 9.7
2018-Jul-02 22:00N 34°58' E 139°43'7 8.4
2018-Jul-02 21:14N 34°52' E 139°48'  
2018-Jun-28 02:47N 33°49' E 135°05'2 7.9
2018-Jun-28 02:30N 33°50' E 135°03'4 7.4
2018-Jun-28 02:01N 33°53' E 135°00'3 6.3
2018-Jun-28 01:30N 33°56' E 134°60'3 6.2
2018-Jun-28 01:00N 33°59' E 134°60'3 5.9
2018-Jun-28 00:30N 34°02' E 134°60'3 6.5
2018-Jun-28 00:00N 34°06' E 134°59'3 6.8
2018-Jun-27 23:30N 34°09' E 134°59'3 6.3
2018-Jun-27 23:00N 34°12' E 134°59'3 6.8
2018-Jun-27 22:30N 34°16' E 134°59'3 5.9
2018-Jun-27 22:00N 34°19' E 134°59'3 6.7
2018-Jun-27 21:30N 34°22' E 134°60'4 7.5
2018-Jun-27 21:00N 34°26' E 135°00'4 8.0
2018-Jun-27 20:30N 34°29' E 135°02'4 7.7
2018-Jun-27 20:00N 34°33' E 135°02'8 6.6
2018-Jun-27 18:44N 34°34' E 134°52'210.4
2018-Jun-27 18:30N 34°33' E 134°49'4 9.2
2018-Jun-27 18:00N 34°32' E 134°44'5 9.0
2018-Jun-27 17:30N 34°30' E 134°39'5 9.3
2018-Jun-27 17:00N 34°28' E 134°34'5 9.0
2018-Jun-27 16:29N 34°26' E 134°29'4 9.1
2018-Jun-27 16:00N 34°25' E 134°24'  
Track history (hours):
 
Tides and Currents Weather Stations Pressure Air Temp Water Temp Dewpoint Dewpoint Depression Visibility Wind Speed Wind Dir Waves Ship Positions

Tai Xin

Last reported at 2018-Jul-06 13:07 UTC. Time now 2018-Jul-18 08:49 UTC.
Position N 34°58' E 139°27'.
Warning: this ship's position is 11 days out of date.

Length 75 m; draft 5.2 m.

Type: Cargo ship. MMSI: 671897000.

Date/timePositionNaut miles runAvg speedWind from/ knotsBaromVisibWave heightAir tempDewpointWater temp
2018-Jul-06 13:07N 34°58' E 139°27'1 5.6
2018-Jul-06 12:58N 34°58' E 139°28'3 6.0
2018-Jul-06 12:29N 34°60' E 139°31'3 6.4
2018-Jul-06 11:59N 35°02' E 139°34'4 7.6
2018-Jul-06 11:30N 35°04' E 139°37'4 8.0
2018-Jul-06 11:01N 35°07' E 139°41'4 8.2
2018-Jul-06 10:31N 35°10' E 139°45'4 7.9
2018-Jul-06 09:58N 35°14' E 139°46'4 7.8
2018-Jul-06 09:31N 35°17' E 139°45'4 8.3
2018-Jul-06 09:01N 35°21' E 139°42'4 8.4
2018-Jul-06 08:30N 35°25' E 139°44'5 9.2
2018-Jul-06 08:01N 35°28' E 139°48'5 9.1
2018-Jul-06 07:30N 35°31' E 139°53'7 0.4
2018-Jul-05 10:31N 35°37' E 139°58'0 0.0
2018-Jul-05 09:34N 35°37' E 139°58'0 0.0
2018-Jul-05 09:22N 35°37' E 139°58'0 0.0
2018-Jul-05 08:46N 35°37' E 139°58'0 0.0
2018-Jul-05 08:22N 35°37' E 139°58'  
2018-Jul-03 02:15N 35°34' E 139°57'310.1
2018-Jul-03 02:00N 35°32' E 139°55'5 9.6
2018-Jul-03 01:30N 35°28' E 139°51'5 9.8
2018-Jul-03 01:00N 35°25' E 139°47'5 9.3
2018-Jul-03 00:30N 35°20' E 139°45'4 8.0
2018-Jul-03 00:00N 35°16' E 139°46'4 8.9
2018-Jul-02 23:30N 35°12' E 139°47'5 9.4
2018-Jul-02 23:00N 35°07' E 139°46'5 9.7
2018-Jul-02 22:30N 35°03' E 139°45'5 9.7
2018-Jul-02 22:00N 34°58' E 139°43'7 8.4
2018-Jul-02 21:14N 34°52' E 139°48'  
2018-Jun-28 02:47N 33°49' E 135°05'2 7.9
2018-Jun-28 02:30N 33°50' E 135°03'4 7.4
2018-Jun-28 02:01N 33°53' E 135°00'3 6.3
2018-Jun-28 01:30N 33°56' E 134°60'3 6.2
2018-Jun-28 01:00N 33°59' E 134°60'3 5.9
2018-Jun-28 00:30N 34°02' E 134°60'3 6.5
2018-Jun-28 00:00N 34°06' E 134°59'3 6.8
2018-Jun-27 23:30N 34°09' E 134°59'3 6.3
2018-Jun-27 23:00N 34°12' E 134°59'3 6.8
2018-Jun-27 22:30N 34°16' E 134°59'3 5.9
2018-Jun-27 22:00N 34°19' E 134°59'3 6.7
2018-Jun-27 21:30N 34°22' E 134°60'4 7.5
2018-Jun-27 21:00N 34°26' E 135°00'4 8.0
2018-Jun-27 20:30N 34°29' E 135°02'4 7.7
2018-Jun-27 20:00N 34°33' E 135°02'8 6.6
2018-Jun-27 18:44N 34°34' E 134°52'210.4
2018-Jun-27 18:30N 34°33' E 134°49'4 9.2
2018-Jun-27 18:00N 34°32' E 134°44'5 9.0
2018-Jun-27 17:30N 34°30' E 134°39'5 9.3
2018-Jun-27 17:00N 34°28' E 134°34'5 9.0
2018-Jun-27 16:29N 34°26' E 134°29'4 9.1
2018-Jun-27 16:00N 34°25' E 134°24'  

Dump ship's entire track history